sensor_id;sensor_type;location;lat;lon;timestamp;P1;durP1;ratioP1;P2;durP2;ratioP2
43449;SDS011;29041;42.266;23.110;2023-04-25T00:00:35;2.10;;;1.35;;
43449;SDS011;29041;42.266;23.110;2023-04-25T00:03:22;1.73;;;1.25;;
43449;SDS011;29041;42.266;23.110;2023-04-25T00:06:10;2.38;;;1.70;;
43449;SDS011;29041;42.266;23.110;2023-04-25T00:08:58;2.15;;;1.15;;
43449;SDS011;29041;42.266;23.110;2023-04-25T00:11:45;1.85;;;1.20;;
43449;SDS011;29041;42.266;23.110;2023-04-25T00:14:32;2.60;;;1.10;;
43449;SDS011;29041;42.266;23.110;2023-04-25T00:17:20;3.03;;;1.48;;
43449;SDS011;29041;42.266;23.110;2023-04-25T00:20:08;2.03;;;1.55;;
43449;SDS011;29041;42.266;23.110;2023-04-25T00:22:55;1.73;;;1.35;;
43449;SDS011;29041;42.266;23.110;2023-04-25T00:25:47;5.30;;;1.38;;
43449;SDS011;29041;42.266;23.110;2023-04-25T00:28:35;3.40;;;1.98;;
43449;SDS011;29041;42.266;23.110;2023-04-25T00:31:21;3.20;;;1.90;;
43449;SDS011;29041;42.266;23.110;2023-04-25T00:34:08;3.03;;;1.85;;
43449;SDS011;29041;42.266;23.110;2023-04-25T00:36:55;3.63;;;1.60;;
43449;SDS011;29041;42.266;23.110;2023-04-25T00:39:42;1.85;;;1.35;;
43449;SDS011;29041;42.266;23.110;2023-04-25T00:42:30;1.98;;;1.40;;
43449;SDS011;29041;42.266;23.110;2023-04-25T00:45:18;2.17;;;1.70;;
43449;SDS011;29041;42.266;23.110;2023-04-25T00:48:05;3.15;;;1.63;;
43449;SDS011;29041;42.266;23.110;2023-04-25T00:50:52;2.45;;;1.70;;
43449;SDS011;29041;42.266;23.110;2023-04-25T00:53:39;2.33;;;1.52;;
43449;SDS011;29041;42.266;23.110;2023-04-25T00:56:26;2.80;;;1.70;;
43449;SDS011;29041;42.266;23.110;2023-04-25T00:59:15;2.15;;;1.38;;
43449;SDS011;29041;42.266;23.110;2023-04-25T01:02:02;2.95;;;1.50;;
43449;SDS011;29041;42.266;23.110;2023-04-25T01:04:49;6.80;;;2.13;;
43449;SDS011;29041;42.266;23.110;2023-04-25T01:07:36;2.70;;;1.77;;
43449;SDS011;29041;42.266;23.110;2023-04-25T01:10:23;8.13;;;2.45;;
43449;SDS011;29041;42.266;23.110;2023-04-25T01:13:10;2.83;;;2.15;;
43449;SDS011;29041;42.266;23.110;2023-04-25T01:15:58;6.30;;;2.03;;
43449;SDS011;29041;42.266;23.110;2023-04-25T01:18:45;3.60;;;2.45;;
43449;SDS011;29041;42.266;23.110;2023-04-25T01:21:34;3.75;;;2.20;;
43449;SDS011;29041;42.266;23.110;2023-04-25T01:24:21;4.78;;;2.47;;
43449;SDS011;29041;42.266;23.110;2023-04-25T01:27:08;8.38;;;2.38;;
43449;SDS011;29041;42.266;23.110;2023-04-25T01:29:55;3.22;;;2.58;;
43449;SDS011;29041;42.266;23.110;2023-04-25T01:32:42;4.00;;;2.60;;
43449;SDS011;29041;42.266;23.110;2023-04-25T01:35:29;4.43;;;2.47;;
43449;SDS011;29041;42.266;23.110;2023-04-25T01:38:18;3.15;;;1.98;;
43449;SDS011;29041;42.266;23.110;2023-04-25T01:41:05;3.97;;;2.53;;
43449;SDS011;29041;42.266;23.110;2023-04-25T01:43:52;4.85;;;2.55;;
43449;SDS011;29041;42.266;23.110;2023-04-25T01:46:39;4.22;;;2.78;;
43449;SDS011;29041;42.266;23.110;2023-04-25T01:49:26;7.38;;;2.42;;
43449;SDS011;29041;42.266;23.110;2023-04-25T01:52:12;4.13;;;2.60;;
43449;SDS011;29041;42.266;23.110;2023-04-25T01:55:01;3.13;;;2.15;;
43449;SDS011;29041;42.266;23.110;2023-04-25T01:57:48;5.05;;;3.00;;
43449;SDS011;29041;42.266;23.110;2023-04-25T02:00:35;2.75;;;2.00;;
43449;SDS011;29041;42.266;23.110;2023-04-25T02:03:24;5.80;;;2.95;;
43449;SDS011;29041;42.266;23.110;2023-04-25T02:06:11;4.95;;;1.67;;
43449;SDS011;29041;42.266;23.110;2023-04-25T02:08:57;4.30;;;1.95;;
43449;SDS011;29041;42.266;23.110;2023-04-25T02:11:46;2.22;;;1.60;;
43449;SDS011;29041;42.266;23.110;2023-04-25T02:14:33;3.08;;;2.05;;
43449;SDS011;29041;42.266;23.110;2023-04-25T02:17:19;2.00;;;1.73;;
43449;SDS011;29041;42.266;23.110;2023-04-25T02:20:22;2.17;;;1.55;;
43449;SDS011;29041;42.266;23.110;2023-04-25T02:23:09;3.60;;;2.03;;
43449;SDS011;29041;42.266;23.110;2023-04-25T02:25:56;2.97;;;2.25;;
43449;SDS011;29041;42.266;23.110;2023-04-25T02:28:45;4.32;;;1.77;;
43449;SDS011;29041;42.266;23.110;2023-04-25T02:31:31;3.22;;;1.65;;
43449;SDS011;29041;42.266;23.110;2023-04-25T02:34:18;2.38;;;1.67;;
43449;SDS011;29041;42.266;23.110;2023-04-25T02:37:05;3.58;;;1.85;;
43449;SDS011;29041;42.266;23.110;2023-04-25T02:39:52;2.70;;;1.98;;
43449;SDS011;29041;42.266;23.110;2023-04-25T02:42:40;3.90;;;1.77;;
43449;SDS011;29041;42.266;23.110;2023-04-25T02:45:32;4.88;;;2.17;;
43449;SDS011;29041;42.266;23.110;2023-04-25T02:48:19;3.10;;;1.65;;
43449;SDS011;29041;42.266;23.110;2023-04-25T02:51:06;3.22;;;2.00;;
43449;SDS011;29041;42.266;23.110;2023-04-25T02:53:53;2.60;;;1.83;;
43449;SDS011;29041;42.266;23.110;2023-04-25T02:56:40;3.20;;;1.70;;
43449;SDS011;29041;42.266;23.110;2023-04-25T02:59:26;2.92;;;1.70;;
43449;SDS011;29041;42.266;23.110;2023-04-25T03:02:15;2.78;;;2.45;;
43449;SDS011;29041;42.266;23.110;2023-04-25T03:05:01;5.15;;;2.15;;
43449;SDS011;29041;42.266;23.110;2023-04-25T03:07:48;3.13;;;2.17;;
43449;SDS011;29041;42.266;23.110;2023-04-25T03:10:35;3.65;;;2.42;;
43449;SDS011;29041;42.266;23.110;2023-04-25T03:13:22;4.30;;;2.40;;
43449;SDS011;29041;42.266;23.110;2023-04-25T03:16:09;3.65;;;2.05;;
43449;SDS011;29041;42.266;23.110;2023-04-25T03:18:59;2.97;;;2.00;;
43449;SDS011;29041;42.266;23.110;2023-04-25T03:21:46;3.38;;;2.47;;
43449;SDS011;29041;42.266;23.110;2023-04-25T03:24:33;4.53;;;1.85;;
43449;SDS011;29041;42.266;23.110;2023-04-25T03:27:20;3.75;;;2.35;;
43449;SDS011;29041;42.266;23.110;2023-04-25T03:30:12;4.38;;;2.92;;
43449;SDS011;29041;42.266;23.110;2023-04-25T03:32:59;4.10;;;2.58;;
43449;SDS011;29041;42.266;23.110;2023-04-25T03:35:47;3.42;;;2.17;;
43449;SDS011;29041;42.266;23.110;2023-04-25T03:38:35;5.55;;;3.17;;
43449;SDS011;29041;42.266;23.110;2023-04-25T03:41:22;3.67;;;2.17;;
43449;SDS011;29041;42.266;23.110;2023-04-25T03:44:09;3.88;;;2.80;;
43449;SDS011;29041;42.266;23.110;2023-04-25T03:46:56;3.92;;;2.63;;
43449;SDS011;29041;42.266;23.110;2023-04-25T03:49:43;7.75;;;5.28;;
43449;SDS011;29041;42.266;23.110;2023-04-25T03:52:31;3.88;;;2.75;;
43449;SDS011;29041;42.266;23.110;2023-04-25T03:55:18;7.18;;;3.22;;
43449;SDS011;29041;42.266;23.110;2023-04-25T03:58:05;3.53;;;2.00;;
43449;SDS011;29041;42.266;23.110;2023-04-25T04:00:58;4.22;;;2.30;;
43449;SDS011;29041;42.266;23.110;2023-04-25T04:03:45;4.38;;;2.22;;
43449;SDS011;29041;42.266;23.110;2023-04-25T04:06:32;3.78;;;2.42;;
43449;SDS011;29041;42.266;23.110;2023-04-25T04:09:20;4.38;;;2.78;;
43449;SDS011;29041;42.266;23.110;2023-04-25T04:12:08;7.15;;;1.60;;
43449;SDS011;29041;42.266;23.110;2023-04-25T04:14:54;3.00;;;1.67;;
43449;SDS011;29041;42.266;23.110;2023-04-25T04:17:41;2.42;;;1.50;;
43449;SDS011;29041;42.266;23.110;2023-04-25T04:20:28;2.00;;;1.38;;
43449;SDS011;29041;42.266;23.110;2023-04-25T04:41:13;4.55;;;2.78;;
43449;SDS011;29041;42.266;23.110;2023-04-25T04:44:00;3.38;;;2.30;;
43449;SDS011;29041;42.266;23.110;2023-04-25T04:46:48;4.15;;;2.83;;
43449;SDS011;29041;42.266;23.110;2023-04-25T05:00:00;4.00;;;2.50;;
43449;SDS011;29041;42.266;23.110;2023-04-25T05:05:31;4.03;;;2.80;;
43449;SDS011;29041;42.266;23.110;2023-04-25T05:13:28;3.85;;;2.90;;
43449;SDS011;29041;42.266;23.110;2023-04-25T05:42:09;4.55;;;2.63;;
43449;SDS011;29041;42.266;23.110;2023-04-25T05:44:57;3.45;;;2.08;;
43449;SDS011;29041;42.266;23.110;2023-04-25T05:47:46;5.22;;;3.00;;
43449;SDS011;29041;42.266;23.110;2023-04-25T07:18:02;1.27;;;0.98;;
43449;SDS011;29041;42.266;23.110;2023-04-25T07:20:51;3.47;;;0.90;;
43449;SDS011;29041;42.266;23.110;2023-04-25T07:29:23;3.40;;;1.27;;
43449;SDS011;29041;42.266;23.110;2023-04-25T07:34:58;7.32;;;1.38;;
43449;SDS011;29041;42.266;23.110;2023-04-25T07:43:06;2.20;;;0.75;;
43449;SDS011;29041;42.266;23.110;2023-04-25T07:45:53;2.35;;;0.50;;
43449;SDS011;29041;42.266;23.110;2023-04-25T07:48:39;0.88;;;0.47;;
43449;SDS011;29041;42.266;23.110;2023-04-25T07:51:28;1.02;;;0.70;;
43449;SDS011;29041;42.266;23.110;2023-04-25T07:54:15;0.70;;;0.30;;
43449;SDS011;29041;42.266;23.110;2023-04-25T07:57:02;0.47;;;0.40;;
43449;SDS011;29041;42.266;23.110;2023-04-25T07:59:49;0.52;;;0.50;;
43449;SDS011;29041;42.266;23.110;2023-04-25T08:02:36;0.47;;;0.45;;
43449;SDS011;29041;42.266;23.110;2023-04-25T08:05:22;1.40;;;0.60;;
43449;SDS011;29041;42.266;23.110;2023-04-25T08:08:11;0.38;;;0.38;;
43449;SDS011;29041;42.266;23.110;2023-04-25T08:10:58;3.20;;;0.60;;
43449;SDS011;29041;42.266;23.110;2023-04-25T08:13:45;0.40;;;0.40;;
43449;SDS011;29041;42.266;23.110;2023-04-25T08:16:31;0.95;;;0.50;;
43449;SDS011;29041;42.266;23.110;2023-04-25T08:19:18;12.25;;;3.88;;
43449;SDS011;29041;42.266;23.110;2023-04-25T08:22:05;6.18;;;1.75;;
43449;SDS011;29041;42.266;23.110;2023-04-25T08:24:54;1.55;;;0.60;;
43449;SDS011;29041;42.266;23.110;2023-04-25T08:27:41;4.50;;;1.10;;
43449;SDS011;29041;42.266;23.110;2023-04-25T08:30:28;0.30;;;0.30;;
43449;SDS011;29041;42.266;23.110;2023-04-25T08:33:15;11.07;;;4.15;;
43449;SDS011;29041;42.266;23.110;2023-04-25T08:36:02;3.38;;;1.30;;
43449;SDS011;29041;42.266;23.110;2023-04-25T08:38:49;2.65;;;0.70;;
43449;SDS011;29041;42.266;23.110;2023-04-25T08:41:37;2.58;;;1.70;;
43449;SDS011;29041;42.266;23.110;2023-04-25T08:44:26;0.60;;;0.30;;
43449;SDS011;29041;42.266;23.110;2023-04-25T08:47:13;0.30;;;0.30;;
43449;SDS011;29041;42.266;23.110;2023-04-25T08:50:00;0.40;;;0.40;;
43449;SDS011;29041;42.266;23.110;2023-04-25T08:52:48;1.92;;;0.70;;
43449;SDS011;29041;42.266;23.110;2023-04-25T08:55:37;0.60;;;0.50;;
43449;SDS011;29041;42.266;23.110;2023-04-25T08:58:29;0.52;;;0.50;;
43449;SDS011;29041;42.266;23.110;2023-04-25T09:01:21;3.80;;;1.38;;
43449;SDS011;29041;42.266;23.110;2023-04-25T09:04:07;3.20;;;1.67;;
43449;SDS011;29041;42.266;23.110;2023-04-25T09:06:54;2.45;;;1.48;;
43449;SDS011;29041;42.266;23.110;2023-04-25T09:09:42;3.65;;;0.98;;
43449;SDS011;29041;42.266;23.110;2023-04-25T09:12:29;1.20;;;0.82;;
43449;SDS011;29041;42.266;23.110;2023-04-25T09:15:17;0.68;;;0.30;;
43449;SDS011;29041;42.266;23.110;2023-04-25T09:18:04;0.47;;;0.30;;
43449;SDS011;29041;42.266;23.110;2023-04-25T09:20:52;1.02;;;0.70;;
43449;SDS011;29041;42.266;23.110;2023-04-25T09:23:39;0.68;;;0.50;;
43449;SDS011;29041;42.266;23.110;2023-04-25T09:26:26;0.50;;;0.32;;
43449;SDS011;29041;42.266;23.110;2023-04-25T09:29:13;1.80;;;0.70;;
43449;SDS011;29041;42.266;23.110;2023-04-25T09:32:15;0.60;;;0.60;;
43449;SDS011;29041;42.266;23.110;2023-04-25T09:35:03;1.35;;;0.30;;
43449;SDS011;29041;42.266;23.110;2023-04-25T09:37:50;0.93;;;0.47;;
43449;SDS011;29041;42.266;23.110;2023-04-25T09:40:40;2.70;;;0.50;;
43449;SDS011;29041;42.266;23.110;2023-04-25T09:43:27;0.70;;;0.60;;
43449;SDS011;29041;42.266;23.110;2023-04-25T09:46:15;0.95;;;0.40;;
43449;SDS011;29041;42.266;23.110;2023-04-25T09:49:07;1.02;;;0.30;;
43449;SDS011;29041;42.266;23.110;2023-04-25T09:51:55;0.30;;;0.30;;
43449;SDS011;29041;42.266;23.110;2023-04-25T09:54:43;0.95;;;0.30;;
43449;SDS011;29041;42.266;23.110;2023-04-25T09:57:30;0.73;;;0.40;;
43449;SDS011;29041;42.266;23.110;2023-04-25T10:00:17;0.30;;;0.30;;
43449;SDS011;29041;42.266;23.110;2023-04-25T10:03:05;4.25;;;0.52;;
43449;SDS011;29041;42.266;23.110;2023-04-25T10:05:53;0.63;;;0.40;;
43449;SDS011;29041;42.266;23.110;2023-04-25T10:11:25;0.40;;;0.40;;
43449;SDS011;29041;42.266;23.110;2023-04-25T10:17:18;0.63;;;0.22;;
43449;SDS011;29041;42.266;23.110;2023-04-25T10:23:30;0.50;;;0.30;;
43449;SDS011;29041;42.266;23.110;2023-04-25T10:26:17;0.88;;;0.40;;
43449;SDS011;29041;42.266;23.110;2023-04-25T10:29:04;0.60;;;0.40;;
43449;SDS011;29041;42.266;23.110;2023-04-25T10:31:51;0.93;;;0.50;;
43449;SDS011;29041;42.266;23.110;2023-04-25T10:34:39;0.47;;;0.20;;
43449;SDS011;29041;42.266;23.110;2023-04-25T10:37:26;0.75;;;0.22;;
43449;SDS011;29041;42.266;23.110;2023-04-25T10:40:16;0.40;;;0.30;;
43449;SDS011;29041;42.266;23.110;2023-04-25T10:46:13;0.22;;;0.20;;
43449;SDS011;29041;42.266;23.110;2023-04-25T10:49:00;1.63;;;0.38;;
43449;SDS011;29041;42.266;23.110;2023-04-25T10:51:47;0.30;;;0.30;;
43449;SDS011;29041;42.266;23.110;2023-04-25T10:54:34;0.40;;;0.40;;
43449;SDS011;29041;42.266;23.110;2023-04-25T10:57:29;0.50;;;0.38;;
43449;SDS011;29041;42.266;23.110;2023-04-25T11:00:16;0.63;;;0.43;;
43449;SDS011;29041;42.266;23.110;2023-04-25T11:03:04;3.13;;;0.40;;
43449;SDS011;29041;42.266;23.110;2023-04-25T11:05:50;1.48;;;0.40;;
43449;SDS011;29041;42.266;23.110;2023-04-25T11:08:47;2.35;;;0.43;;
43449;SDS011;29041;42.266;23.110;2023-04-25T11:25:36;7.43;;;2.95;;
43449;SDS011;29041;42.266;23.110;2023-04-25T11:28:23;5.38;;;2.63;;
43449;SDS011;29041;42.266;23.110;2023-04-25T11:31:10;2.53;;;0.85;;
43449;SDS011;29041;42.266;23.110;2023-04-25T11:33:57;1.13;;;0.43;;
43449;SDS011;29041;42.266;23.110;2023-04-25T11:36:44;2.45;;;1.23;;
43449;SDS011;29041;42.266;23.110;2023-04-25T11:39:44;1.48;;;0.65;;
43449;SDS011;29041;42.266;23.110;2023-04-25T11:42:37;0.50;;;0.30;;
43449;SDS011;29041;42.266;23.110;2023-04-25T11:45:24;1.92;;;0.88;;
43449;SDS011;29041;42.266;23.110;2023-04-25T11:48:11;1.55;;;0.50;;
43449;SDS011;29041;42.266;23.110;2023-04-25T11:50:59;0.60;;;0.20;;
43449;SDS011;29041;42.266;23.110;2023-04-25T11:53:46;1.13;;;0.35;;
43449;SDS011;29041;42.266;23.110;2023-04-25T11:56:33;0.85;;;0.50;;
43449;SDS011;29041;42.266;23.110;2023-04-25T11:59:24;1.00;;;0.50;;
43449;SDS011;29041;42.266;23.110;2023-04-25T12:02:23;0.57;;;0.40;;
43449;SDS011;29041;42.266;23.110;2023-04-25T12:05:10;1.25;;;0.47;;
43449;SDS011;29041;42.266;23.110;2023-04-25T12:07:57;0.43;;;0.20;;
43449;SDS011;29041;42.266;23.110;2023-04-25T12:14:02;0.55;;;0.20;;
43449;SDS011;29041;42.266;23.110;2023-04-25T12:17:00;0.40;;;0.30;;
43449;SDS011;29041;42.266;23.110;2023-04-25T12:19:47;0.68;;;0.50;;
43449;SDS011;29041;42.266;23.110;2023-04-25T12:22:34;1.58;;;0.52;;
43449;SDS011;29041;42.266;23.110;2023-04-25T12:25:34;0.88;;;0.17;;
43449;SDS011;29041;42.266;23.110;2023-04-25T12:28:22;1.33;;;0.40;;
43449;SDS011;29041;42.266;23.110;2023-04-25T12:31:09;1.13;;;0.50;;
43449;SDS011;29041;42.266;23.110;2023-04-25T12:33:58;0.88;;;0.47;;
43449;SDS011;29041;42.266;23.110;2023-04-25T12:36:44;2.10;;;0.68;;
43449;SDS011;29041;42.266;23.110;2023-04-25T12:39:33;1.60;;;0.45;;
43449;SDS011;29041;42.266;23.110;2023-04-25T12:42:24;3.70;;;1.02;;
43449;SDS011;29041;42.266;23.110;2023-04-25T13:03:26;0.65;;;0.57;;
43449;SDS011;29041;42.266;23.110;2023-04-25T13:06:12;1.33;;;1.05;;
43449;SDS011;29041;42.266;23.110;2023-04-25T13:08:59;2.20;;;0.90;;
43449;SDS011;29041;42.266;23.110;2023-04-25T13:11:47;1.65;;;1.27;;
43449;SDS011;29041;42.266;23.110;2023-04-25T13:14:33;3.38;;;1.20;;
43449;SDS011;29041;42.266;23.110;2023-04-25T13:20:19;1.77;;;1.20;;
43449;SDS011;29041;42.266;23.110;2023-04-25T13:23:07;1.67;;;1.23;;
43449;SDS011;29041;42.266;23.110;2023-04-25T13:25:54;1.95;;;0.93;;
43449;SDS011;29041;42.266;23.110;2023-04-25T13:28:43;1.63;;;0.93;;
43449;SDS011;29041;42.266;23.110;2023-04-25T13:34:17;2.20;;;1.10;;
43449;SDS011;29041;42.266;23.110;2023-04-25T13:37:05;1.10;;;0.70;;
43449;SDS011;29041;42.266;23.110;2023-04-25T13:39:52;4.47;;;0.75;;
43449;SDS011;29041;42.266;23.110;2023-04-25T13:42:40;1.15;;;0.55;;
43449;SDS011;29041;42.266;23.110;2023-04-25T13:48:41;3.17;;;0.88;;
43449;SDS011;29041;42.266;23.110;2023-04-25T13:51:31;1.83;;;0.88;;
43449;SDS011;29041;42.266;23.110;2023-04-25T13:54:20;1.45;;;0.60;;
43449;SDS011;29041;42.266;23.110;2023-04-25T13:57:07;1.50;;;0.85;;
43449;SDS011;29041;42.266;23.110;2023-04-25T13:59:54;1.98;;;0.75;;
43449;SDS011;29041;42.266;23.110;2023-04-25T14:02:41;1.80;;;0.90;;
43449;SDS011;29041;42.266;23.110;2023-04-25T14:05:28;3.15;;;0.90;;
43449;SDS011;29041;42.266;23.110;2023-04-25T14:08:14;1.30;;;0.47;;
43449;SDS011;29041;42.266;23.110;2023-04-25T14:11:03;6.40;;;0.90;;
43449;SDS011;29041;42.266;23.110;2023-04-25T14:13:50;2.17;;;1.27;;
43449;SDS011;29041;42.266;23.110;2023-04-25T14:16:37;6.30;;;0.90;;
43449;SDS011;29041;42.266;23.110;2023-04-25T14:19:23;0.75;;;0.55;;
43449;SDS011;29041;42.266;23.110;2023-04-25T14:22:11;1.13;;;0.50;;
43449;SDS011;29041;42.266;23.110;2023-04-25T14:24:57;1.20;;;0.75;;
43449;SDS011;29041;42.266;23.110;2023-04-25T14:27:46;1.70;;;0.57;;
43449;SDS011;29041;42.266;23.110;2023-04-25T14:30:35;1.60;;;1.05;;
43449;SDS011;29041;42.266;23.110;2023-04-25T14:33:22;3.55;;;0.88;;
43449;SDS011;29041;42.266;23.110;2023-04-25T14:36:09;2.40;;;0.80;;
43449;SDS011;29041;42.266;23.110;2023-04-25T14:38:56;1.00;;;0.57;;
43449;SDS011;29041;42.266;23.110;2023-04-25T14:41:42;1.50;;;0.68;;
43449;SDS011;29041;42.266;23.110;2023-04-25T14:44:31;2.03;;;0.70;;
43449;SDS011;29041;42.266;23.110;2023-04-25T14:47:17;1.52;;;0.55;;
43449;SDS011;29041;42.266;23.110;2023-04-25T14:50:05;0.55;;;0.47;;
43449;SDS011;29041;42.266;23.110;2023-04-25T14:52:52;1.48;;;0.50;;
43449;SDS011;29041;42.266;23.110;2023-04-25T14:55:44;0.75;;;0.40;;
43449;SDS011;29041;42.266;23.110;2023-04-25T14:58:31;3.55;;;0.60;;
43449;SDS011;29041;42.266;23.110;2023-04-25T15:01:34;0.40;;;0.30;;
43449;SDS011;29041;42.266;23.110;2023-04-25T15:04:21;0.75;;;0.38;;
43449;SDS011;29041;42.266;23.110;2023-04-25T15:07:09;4.57;;;1.25;;
43449;SDS011;29041;42.266;23.110;2023-04-25T15:09:56;1.70;;;1.15;;
43449;SDS011;29041;42.266;23.110;2023-04-25T15:12:43;1.80;;;0.98;;
43449;SDS011;29041;42.266;23.110;2023-04-25T15:32:01;3.08;;;1.17;;
43449;SDS011;29041;42.266;23.110;2023-04-25T15:35:04;0.67;;;0.43;;
43449;SDS011;29041;42.266;23.110;2023-04-25T15:37:52;2.17;;;0.55;;
43449;SDS011;29041;42.266;23.110;2023-04-25T15:40:38;2.20;;;1.10;;
43449;SDS011;29041;42.266;23.110;2023-04-25T15:43:26;1.58;;;0.80;;
43449;SDS011;29041;42.266;23.110;2023-04-25T15:46:14;2.63;;;1.02;;
43449;SDS011;29041;42.266;23.110;2023-04-25T15:49:02;2.33;;;1.15;;
43449;SDS011;29041;42.266;23.110;2023-04-25T18:55:27;8.60;;;4.80;;
43449;SDS011;29041;42.266;23.110;2023-04-25T20:06:04;2.05;;;1.00;;
43449;SDS011;29041;42.266;23.110;2023-04-25T20:08:52;1.15;;;1.00;;
43449;SDS011;29041;42.266;23.110;2023-04-25T20:11:39;3.58;;;1.38;;
43449;SDS011;29041;42.266;23.110;2023-04-25T20:14:26;3.22;;;1.60;;
43449;SDS011;29041;42.266;23.110;2023-04-25T20:17:12;2.53;;;1.33;;
43449;SDS011;29041;42.266;23.110;2023-04-25T20:19:59;2.42;;;1.42;;
43449;SDS011;29041;42.266;23.110;2023-04-25T20:22:49;2.17;;;1.45;;
43449;SDS011;29041;42.266;23.110;2023-04-25T20:25:36;2.58;;;1.45;;
43449;SDS011;29041;42.266;23.110;2023-04-25T20:28:23;2.72;;;1.50;;
43449;SDS011;29041;42.266;23.110;2023-04-25T20:31:11;0.93;;;0.68;;
43449;SDS011;29041;42.266;23.110;2023-04-25T20:33:59;1.85;;;0.70;;
43449;SDS011;29041;42.266;23.110;2023-04-25T20:36:46;2.78;;;0.80;;
43449;SDS011;29041;42.266;23.110;2023-04-25T20:39:34;1.85;;;0.90;;
43449;SDS011;29041;42.266;23.110;2023-04-25T20:42:21;1.25;;;0.82;;
43449;SDS011;29041;42.266;23.110;2023-04-25T20:45:08;4.22;;;0.77;;
43449;SDS011;29041;42.266;23.110;2023-04-25T20:47:57;0.88;;;0.43;;
43449;SDS011;29041;42.266;23.110;2023-04-25T20:50:48;1.23;;;0.80;;
43449;SDS011;29041;42.266;23.110;2023-04-25T20:53:36;2.25;;;0.68;;
43449;SDS011;29041;42.266;23.110;2023-04-25T20:56:24;0.77;;;0.60;;
43449;SDS011;29041;42.266;23.110;2023-04-25T20:59:11;1.05;;;0.65;;
43449;SDS011;29041;42.266;23.110;2023-04-25T21:01:58;1.42;;;0.28;;
43449;SDS011;29041;42.266;23.110;2023-04-25T21:04:49;1.08;;;0.20;;
43449;SDS011;29041;42.266;23.110;2023-04-25T21:07:36;0.22;;;0.20;;
43449;SDS011;29041;42.266;23.110;2023-04-25T21:10:28;1.13;;;0.95;;
43449;SDS011;29041;42.266;23.110;2023-04-25T21:13:17;0.15;;;0.10;;
43449;SDS011;29041;42.266;23.110;2023-04-25T21:16:04;0.35;;;0.30;;
43449;SDS011;29041;42.266;23.110;2023-04-25T21:18:51;0.13;;;0.10;;
43449;SDS011;29041;42.266;23.110;2023-04-25T21:21:38;0.82;;;0.50;;
43449;SDS011;29041;42.266;23.110;2023-04-25T21:24:25;0.65;;;0.38;;
43449;SDS011;29041;42.266;23.110;2023-04-25T21:27:12;0.77;;;0.50;;
43449;SDS011;29041;42.266;23.110;2023-04-25T21:33:18;0.63;;;0.50;;
43449;SDS011;29041;42.266;23.110;2023-04-25T21:36:05;0.88;;;0.60;;
43449;SDS011;29041;42.266;23.110;2023-04-25T21:38:52;0.20;;;0.20;;
43449;SDS011;29041;42.266;23.110;2023-04-25T21:44:14;0.65;;;0.30;;
43449;SDS011;29041;42.266;23.110;2023-04-25T21:47:01;0.85;;;0.40;;
43449;SDS011;29041;42.266;23.110;2023-04-25T21:49:50;1.58;;;0.73;;
43449;SDS011;29041;42.266;23.110;2023-04-25T21:52:37;1.30;;;0.45;;
43449;SDS011;29041;42.266;23.110;2023-04-25T21:55:24;1.25;;;0.70;;
43449;SDS011;29041;42.266;23.110;2023-04-25T21:58:11;0.65;;;0.50;;
43449;SDS011;29041;42.266;23.110;2023-04-25T22:00:58;2.25;;;0.50;;
43449;SDS011;29041;42.266;23.110;2023-04-25T22:03:45;1.02;;;0.57;;
43449;SDS011;29041;42.266;23.110;2023-04-25T22:06:33;0.80;;;0.45;;
43449;SDS011;29041;42.266;23.110;2023-04-25T22:09:21;0.47;;;0.40;;
43449;SDS011;29041;42.266;23.110;2023-04-25T22:12:07;0.52;;;0.40;;
43449;SDS011;29041;42.266;23.110;2023-04-25T22:14:55;0.13;;;0.13;;
43449;SDS011;29041;42.266;23.110;2023-04-25T22:17:42;0.90;;;0.28;;
43449;SDS011;29041;42.266;23.110;2023-04-25T22:20:35;0.93;;;0.38;;
43449;SDS011;29041;42.266;23.110;2023-04-25T22:23:23;0.40;;;0.22;;
43449;SDS011;29041;42.266;23.110;2023-04-25T22:26:10;0.50;;;0.22;;
43449;SDS011;29041;42.266;23.110;2023-04-25T22:28:57;0.32;;;0.20;;
43449;SDS011;29041;42.266;23.110;2023-04-25T22:31:44;0.60;;;0.20;;
43449;SDS011;29041;42.266;23.110;2023-04-25T22:34:31;2.47;;;0.20;;
43449;SDS011;29041;42.266;23.110;2023-04-25T22:37:18;0.38;;;0.20;;
43449;SDS011;29041;42.266;23.110;2023-04-25T22:40:07;0.63;;;0.30;;
43449;SDS011;29041;42.266;23.110;2023-04-25T22:42:54;2.03;;;0.82;;
43449;SDS011;29041;42.266;23.110;2023-04-25T22:45:42;0.43;;;0.20;;
43449;SDS011;29041;42.266;23.110;2023-04-25T22:48:29;0.60;;;0.32;;
43449;SDS011;29041;42.266;23.110;2023-04-25T22:51:15;0.75;;;0.30;;
43449;SDS011;29041;42.266;23.110;2023-04-25T22:54:03;1.23;;;0.57;;
43449;SDS011;29041;42.266;23.110;2023-04-25T22:56:51;0.63;;;0.38;;
43449;SDS011;29041;42.266;23.110;2023-04-25T22:59:38;0.73;;;0.40;;
43449;SDS011;29041;42.266;23.110;2023-04-25T23:02:25;0.55;;;0.40;;
43449;SDS011;29041;42.266;23.110;2023-04-25T23:05:12;0.40;;;0.20;;
43449;SDS011;29041;42.266;23.110;2023-04-25T23:07:58;0.40;;;0.20;;
43449;SDS011;29041;42.266;23.110;2023-04-25T23:10:45;0.65;;;0.30;;
43449;SDS011;29041;42.266;23.110;2023-04-25T23:13:34;0.22;;;0.22;;
43449;SDS011;29041;42.266;23.110;2023-04-25T23:16:22;0.30;;;0.20;;
43449;SDS011;29041;42.266;23.110;2023-04-25T23:19:08;1.98;;;0.60;;
43449;SDS011;29041;42.266;23.110;2023-04-25T23:21:55;0.80;;;0.35;;
43449;SDS011;29041;42.266;23.110;2023-04-25T23:24:42;1.50;;;0.68;;
43449;SDS011;29041;42.266;23.110;2023-04-25T23:27:29;0.50;;;0.45;;
43449;SDS011;29041;42.266;23.110;2023-04-25T23:30:17;1.27;;;0.50;;
43449;SDS011;29041;42.266;23.110;2023-04-25T23:33:04;2.13;;;0.60;;
43449;SDS011;29041;42.266;23.110;2023-04-25T23:35:51;3.50;;;1.05;;
43449;SDS011;29041;42.266;23.110;2023-04-25T23:38:38;2.45;;;1.30;;
43449;SDS011;29041;42.266;23.110;2023-04-25T23:41:25;2.15;;;0.90;;
43449;SDS011;29041;42.266;23.110;2023-04-25T23:44:12;1.75;;;0.73;;
43449;SDS011;29041;42.266;23.110;2023-04-25T23:47:00;0.60;;;0.30;;
43449;SDS011;29041;42.266;23.110;2023-04-25T23:49:47;0.93;;;0.50;;
43449;SDS011;29041;42.266;23.110;2023-04-25T23:52:34;1.25;;;0.40;;
43449;SDS011;29041;42.266;23.110;2023-04-25T23:55:22;0.82;;;0.40;;
43449;SDS011;29041;42.266;23.110;2023-04-25T23:58:09;0.25;;;0.25;;
